Time;durP1;ratioP1;P1;durP2;ratioP2;P2;SDS_P1;SDS_P2;PMS_P1;PMS_P2;Temp;Humidity;BMP_temperature;BMP_pressure;BME280_temperature;BME280_humidity;BME280_pressure;Samples;Min_cycle;Max_cycle;Signal;HPM_P1;HPM_P2
2023/07/04 00:02:27;;;;;;;2.50;1.80;;;;;;;19.87;nan;97561.59;1725388;75;55352;-70
2023/07/04 00:04:56;;;;;;;2.50;2.00;;;;;;;19.96;nan;97566.69;1725013;75;67373;-71
2023/07/04 00:07:26;;;;;;;3.10;2.40;;;;;;;19.63;nan;97567.44;1725133;75;54625;-72
2023/07/04 00:09:58;;;;;;;2.30;2.10;;;;;;;20.00;nan;97585.78;1724212;75;56831;-69
2023/07/04 00:12:28;;;;;;;1.70;1.40;;;;;;;20.03;nan;97568.03;1725406;75;55695;-71
2023/07/04 00:15:01;;;;;;;3.40;2.20;;;;;;;19.53;nan;97559.56;1724705;75;122659;-71
2023/07/04 00:17:30;;;;;;;2.40;2.00;;;;;;;19.57;nan;97573.13;1725696;75;58308;-70
2023/07/04 00:20:00;;;;;;;2.70;1.90;;;;;;;19.78;nan;97562.81;1723570;75;114280;-70
2023/07/04 00:22:30;;;;;;;2.50;2.00;;;;;;;19.61;nan;97553.34;1724829;75;57575;-70
2023/07/04 00:25:02;;;;;;;2.20;1.80;;;;;;;19.43;nan;97560.56;1724473;75;54365;-70
2023/07/04 00:27:33;;;;;;;3.00;2.50;;;;;;;19.54;nan;97563.84;1724980;75;58650;-69
2023/07/04 00:30:04;;;;;;;3.10;2.60;;;;;;;19.54;nan;97574.19;1722864;75;125948;-71
2023/07/04 00:32:34;;;;;;;3.00;2.20;;;;;;;19.40;nan;97559.59;1724706;75;55187;-70
2023/07/04 00:35:04;;;;;;;2.70;2.20;;;;;;;19.37;nan;97553.09;1723595;75;119739;-71
2023/07/04 00:37:34;;;;;;;3.50;2.60;;;;;;;19.29;nan;97545.97;1725059;75;54674;-71
2023/07/04 00:40:11;;;;;;;3.20;2.20;;;;;;;19.68;nan;97545.13;1723699;75;56800;-71
2023/07/04 00:42:41;;;;;;;2.00;1.70;;;;;;;19.69;nan;97545.88;1724041;75;56296;-70
2023/07/04 00:45:19;;;;;;;2.40;1.90;;;;;;;19.55;nan;97543.13;1724482;75;54300;-69
2023/07/04 00:47:53;;;;;;;;;;;;;;;19.76;nan;97540.38;1724738;75;51210;-69
2023/07/04 00:50:26;;;;;;;2.10;1.80;;;;;;;19.71;nan;97546.06;1723721;83;53829;-71
2023/07/04 00:52:59;;;;;;;2.00;1.70;;;;;;;19.76;nan;97567.41;1723761;75;55737;-73
2023/07/04 00:55:32;;;;;;;2.20;1.70;;;;;;;19.89;nan;97542.34;1725141;75;50862;-70
2023/07/04 00:58:04;;;;;;;2.60;1.80;;;;;;;19.66;nan;97544.88;1724955;75;54269;-73
2023/07/04 01:00:36;;;;;;;2.00;1.80;;;;;;;19.45;nan;97542.06;1724220;75;56725;-70
2023/07/04 01:03:11;;;;;;;2.40;1.90;;;;;;;19.44;nan;97559.28;1724227;75;123164;-72
2023/07/04 01:05:52;;;;;;;2.60;2.00;;;;;;;19.13;nan;97540.25;1724161;83;53847;-70
2023/07/04 01:08:28;;;;;;;3.60;2.20;;;;;;;19.21;nan;97553.47;1725310;75;55530;-73
2023/07/04 01:11:04;;;;;;;4.20;2.80;;;;;;;18.94;nan;97567.38;1724335;75;54114;-71
2023/07/04 01:13:36;;;;;;;2.90;2.30;;;;;;;18.88;nan;97566.75;1724686;75;53763;-70
2023/07/04 01:16:09;;;;;;;3.30;2.50;;;;;;;19.21;nan;97567.34;1724045;75;119206;-72
2023/07/04 01:18:40;;;;;;;2.80;2.00;;;;;;;19.49;nan;97559.16;1724664;75;83467;-73
2023/07/04 01:21:13;;;;;;;1.90;1.70;;;;;;;19.59;nan;97562.22;1723274;75;123299;-70
2023/07/04 01:23:54;;;;;;;3.00;2.30;;;;;;;19.62;nan;97568.72;1724859;75;62087;-73
2023/07/04 01:26:31;;;;;;;2.20;2.00;;;;;;;19.65;nan;97573.97;1723825;75;117659;-72
2023/07/04 01:29:04;;;;;;;1.90;1.70;;;;;;;19.66;nan;97581.00;1724114;75;53083;-72
2023/07/04 01:31:35;;;;;;;2.20;1.90;;;;;;;19.05;nan;97574.72;1724659;75;53322;-71
2023/07/04 01:34:07;;;;;;;2.50;2.10;;;;;;;19.39;nan;97576.81;1724712;75;56452;-72
2023/07/04 01:36:40;;;;;;;1.90;1.60;;;;;;;19.43;nan;97572.41;1724969;75;54563;-74
2023/07/04 01:39:15;;;;;;;1.80;1.30;;;;;;;19.61;nan;97561.69;1724831;75;58573;-69
2023/07/04 01:41:49;;;;;;;1.90;1.70;;;;;;;19.67;nan;97570.63;1724772;75;56356;-69
2023/07/04 01:44:24;;;;;;;1.60;1.30;;;;;;;19.74;nan;97565.16;1724469;75;54724;-71
2023/07/04 01:46:54;;;;;;;1.90;1.50;;;;;;;19.43;nan;97575.19;1725219;75;53289;-74
2023/07/04 01:49:24;;;;;;;1.90;1.40;;;;;;;19.35;nan;97579.91;1723506;75;52368;-72
2023/07/04 01:51:53;;;;;;;2.20;1.80;;;;;;;19.34;nan;97570.84;1725476;75;52748;-71
2023/07/04 01:54:23;;;;;;;1.90;1.50;;;;;;;19.41;nan;97566.66;1724220;75;54454;-71
2023/07/04 01:56:56;;;;;;;1.60;1.40;;;;;;;19.46;nan;97576.91;1724793;75;52671;-70
2023/07/04 01:59:26;;;;;;;1.60;1.50;;;;;;;19.47;nan;97581.16;1723092;75;116264;-68
2023/07/04 02:01:56;;;;;;;1.70;1.40;;;;;;;19.15;nan;97590.41;1724484;75;58436;-70
2023/07/04 02:04:26;;;;;;;1.60;1.40;;;;;;;19.46;nan;97590.78;1724032;75;59252;-71
2023/07/04 02:06:55;;;;;;;1.80;1.50;;;;;;;19.42;nan;97595.16;1724452;75;66752;-74
2023/07/04 02:09:25;;;;;;;2.10;1.40;;;;;;;19.35;nan;97602.13;1723099;75;70242;-76
2023/07/04 02:11:57;;;;;;;2.20;1.20;;;;;;;19.49;nan;97620.25;1724483;75;60008;-71
2023/07/04 02:14:27;;;;;;;1.70;1.50;;;;;;;19.22;nan;97618.78;1723777;75;122133;-71
2023/07/04 02:16:57;;;;;;;2.00;1.70;;;;;;;18.86;nan;97617.22;1724776;75;54939;-70
2023/07/04 02:19:26;;;;;;;2.30;2.10;;;;;;;18.65;nan;97611.53;1723098;75;56272;-74
2023/07/04 02:21:56;;;;;;;4.10;2.90;;;;;;;18.68;nan;97613.22;1725055;75;56393;-69
2023/07/04 02:24:25;;;;;;;2.80;2.50;;;;;;;18.69;nan;97614.00;1723976;75;66324;-74
2023/07/04 02:26:58;;;;;;;3.90;2.90;;;;;;;18.73;nan;97617.19;1725135;75;52225;-72
2023/07/04 02:29:28;;;;;;;2.90;2.50;;;;;;;18.82;nan;97616.78;1723003;75;117600;-73
2023/07/04 02:31:57;;;;;;;4.80;3.40;;;;;;;18.51;nan;97621.09;1724787;83;51086;-70
2023/07/04 02:34:27;;;;;;;5.20;3.80;;;;;;;18.51;nan;97621.09;1724343;75;56747;-71
2023/07/04 02:36:57;;;;;;;6.60;4.90;;;;;;;18.08;nan;97622.81;1723177;75;214419;-69
2023/07/04 02:39:29;;;;;;;6.90;5.20;;;;;;;17.95;nan;97625.53;1723412;75;54276;-69
2023/07/04 02:42:01;;;;;;;9.30;5.50;;;;;;;17.91;nan;97629.88;1724893;75;58441;-70
2023/07/04 02:44:31;;;;;;;7.30;5.80;;;;;;;17.71;nan;97620.09;1723993;75;119273;-72
2023/07/04 02:47:01;;;;;;;5.10;4.50;;;;;;;17.88;nan;97620.63;1725019;75;55561;-68
2023/07/04 02:49:30;;;;;;;5.70;4.50;;;;;;;17.82;nan;97620.72;1723349;75;95645;-68
2023/07/04 02:52:00;;;;;;;5.60;4.70;;;;;;;17.86;nan;97610.06;1724843;75;56069;-70
2023/07/04 02:54:29;;;;;;;7.00;4.70;;;;;;;17.83;nan;97613.88;1721352;75;345522;-73
2023/07/04 02:57:02;;;;;;;5.80;4.60;;;;;;;17.95;nan;97628.31;1724390;75;52449;-71
2023/07/04 02:59:31;;;;;;;6.90;5.10;;;;;;;17.75;nan;97628.81;1722891;75;124928;-69
2023/07/04 03:02:01;;;;;;;6.70;4.70;;;;;;;17.73;nan;97618.28;1724517;75;61956;-71
2023/07/04 03:04:31;;;;;;;6.10;4.70;;;;;;;17.70;nan;97611.00;1721537;75;285785;-72
2023/07/04 03:07:00;;;;;;;8.60;4.90;;;;;;;17.73;nan;97609.97;1724806;75;52036;-70
2023/07/04 03:09:30;;;;;;;6.30;5.20;;;;;;;17.77;nan;97606.91;1723347;75;58799;-71
2023/07/04 03:12:02;;;;;;;6.60;5.10;;;;;;;17.84;nan;97598.75;1725550;75;50118;-72
2023/07/04 03:14:32;;;;;;;5.70;4.60;;;;;;;17.93;nan;97594.09;1724383;75;110399;-69
2023/07/04 03:17:01;;;;;;;3.90;3.50;;;;;;;18.04;nan;97593.94;1725817;75;59767;-70
2023/07/04 03:19:31;;;;;;;4.10;3.00;;;;;;;18.07;nan;97606.72;1722178;75;281321;-70
2023/07/04 03:22:01;;;;;;;5.60;3.70;;;;;;;17.95;nan;97597.09;1725294;75;54487;-72
2023/07/04 03:24:30;;;;;;;3.80;2.80;;;;;;;18.33;nan;97602.50;1724204;75;61544;-71
2023/07/04 03:27:03;;;;;;;3.30;2.70;;;;;;;18.34;nan;97609.56;1724363;75;60736;-73
2023/07/04 03:29:32;;;;;;;3.30;2.70;;;;;;;18.34;nan;97615.84;1722922;75;115877;-71
2023/07/04 03:32:02;;;;;;;2.90;2.20;;;;;;;18.28;nan;97615.94;1724507;75;52641;-73
2023/07/04 03:34:32;;;;;;;3.10;2.10;;;;;;;18.27;nan;97617.22;1724560;75;54814;-70
2023/07/04 03:37:01;;;;;;;2.00;1.70;;;;;;;18.68;nan;97629.88;1724802;75;56127;-74
2023/07/04 03:39:31;;;;;;;1.80;1.70;;;;;;;18.71;nan;97631.59;1722814;83;55013;-72
2023/07/04 03:42:03;;;;;;;1.80;1.50;;;;;;;18.79;nan;97626.19;1724547;75;56814;-71
2023/07/04 03:44:33;;;;;;;1.90;1.50;;;;;;;18.88;nan;97633.31;1723926;75;122357;-69
2023/07/04 03:47:02;;;;;;;1.60;1.30;;;;;;;18.92;nan;97642.06;1724921;75;53032;-71
2023/07/04 03:49:32;;;;;;;1.80;1.60;;;;;;;18.88;nan;97628.53;1723946;75;58575;-71
2023/07/04 03:52:02;;;;;;;2.50;2.00;;;;;;;18.49;nan;97641.03;1724716;75;57072;-71
2023/07/04 03:54:31;;;;;;;3.30;2.30;;;;;;;18.30;nan;97637.56;1721078;75;297161;-70
2023/07/04 03:57:04;;;;;;;3.30;3.00;;;;;;;18.25;nan;97638.41;1722881;75;201105;-70
2023/07/04 03:59:33;;;;;;;3.70;2.90;;;;;;;18.56;nan;97641.69;1722956;75;120470;-71
2023/07/04 04:02:03;;;;;;;2.70;2.40;;;;;;;18.66;nan;97651.09;1724084;83;68304;-72
2023/07/04 04:04:36;;;;;;;3.60;2.70;;;;;;;18.43;nan;97647.97;1724108;75;54736;-70
2023/07/04 04:07:07;;;;;;;3.80;3.00;;;;;;;18.23;nan;97635.41;1725021;75;54593;-70
2023/07/04 04:09:37;;;;;;;5.10;4.60;;;;;;;18.17;nan;97645.88;1721993;75;120420;-69
2023/07/04 04:12:11;;;;;;;7.40;6.10;;;;;;;18.23;nan;97652.06;1724497;75;57001;-70
2023/07/04 04:14:41;;;;;;;8.40;6.00;;;;;;;18.18;nan;97652.88;1723853;75;117716;-73
2023/07/04 04:17:11;;;;;;;5.70;4.60;;;;;;;18.51;nan;97655.09;1725048;75;50176;-74
2023/07/04 04:19:40;;;;;;;10.10;7.30;;;;;;;18.74;nan;97654.75;1724008;75;57331;-71
2023/07/04 04:22:10;;;;;;;10.00;7.70;;;;;;;19.00;nan;97656.81;1725260;75;54233;-72
2023/07/04 04:24:40;;;;;;;7.00;6.10;;;;;;;18.82;nan;97658.38;1724542;75;56882;-69
2023/07/04 04:27:13;;;;;;;6.50;5.60;;;;;;;18.43;nan;97659.78;1726416;75;52666;-70
2023/07/04 04:29:42;;;;;;;5.10;4.40;;;;;;;18.99;nan;97662.88;1724200;75;120813;-77
2023/07/04 04:32:12;;;;;;;19.40;15.90;;;;;;;18.77;nan;97659.25;1725604;75;75454;-69
2023/07/04 04:34:42;;;;;;;8.60;7.10;;;;;;;18.69;nan;97672.97;1724978;83;75039;-70
2023/07/04 04:37:11;;;;;;;6.00;5.10;;;;;;;18.72;nan;97671.16;1724874;75;51959;-74
2023/07/04 04:39:43;;;;;;;5.10;4.30;;;;;;;19.07;nan;97666.50;1724131;75;51708;-71
2023/07/04 04:42:15;;;;;;;4.40;4.00;;;;;;;18.87;nan;97667.88;1724750;75;59621;-71
2023/07/04 04:44:45;;;;;;;3.40;3.00;;;;;;;19.30;nan;97666.81;1721232;75;275569;-73
2023/07/04 04:47:15;;;;;;;3.90;3.20;;;;;;;19.25;nan;97670.47;1725722;75;55201;-73
2023/07/04 04:49:44;;;;;;;3.70;3.00;;;;;;;19.10;nan;97682.84;1724288;75;55004;-74
2023/07/04 04:52:14;;;;;;;3.50;3.20;;;;;;;18.88;nan;97681.25;1725301;75;53286;-75
2023/07/04 04:54:44;;;;;;;3.30;3.00;;;;;;;19.04;nan;97692.53;1724169;75;58857;-73
2023/07/04 04:57:16;;;;;;;3.30;2.60;;;;;;;19.36;nan;97684.09;1723979;75;188340;-70
2023/07/04 04:59:47;;;;;;;5.30;4.50;;;;;;;18.86;nan;97686.56;1709633;75;1193877;-71
2023/07/04 05:02:17;;;;;;;3.70;3.40;;;;;;;19.06;nan;97684.44;1725212;83;54175;-71
2023/07/04 05:04:46;;;;;;;3.60;3.00;;;;;;;19.32;nan;97681.66;1724128;75;125651;-71
2023/07/04 05:07:16;;;;;;;3.80;3.40;;;;;;;19.32;nan;97686.47;1724725;75;58204;-71
2023/07/04 05:09:45;;;;;;;3.40;3.10;;;;;;;19.33;nan;97693.50;1724152;75;51995;-72
2023/07/04 05:12:18;;;;;;;5.50;4.30;;;;;;;18.90;nan;97681.44;1724277;75;61654;-72
2023/07/04 05:14:47;;;;;;;3.70;3.30;;;;;;;19.36;nan;97690.41;1722737;75;114762;-73
2023/07/04 05:17:17;;;;;;;3.60;2.90;;;;;;;19.29;nan;97693.84;1725501;75;54046;-76
2023/07/04 05:19:50;;;;;;;3.80;3.40;;;;;;;19.18;nan;97696.81;1723419;75;54503;-73
2023/07/04 05:22:20;;;;;;;3.50;3.00;;;;;;;19.29;nan;97693.84;1724595;75;84590;-74
2023/07/04 05:24:50;;;;;;;3.80;3.00;;;;;;;19.55;nan;97697.84;1722107;75;119389;-72
2023/07/04 05:27:22;;;;;;;3.70;2.80;;;;;;;19.44;nan;97692.56;1724583;75;54039;-72
2023/07/04 05:29:52;;;;;;;3.40;2.90;;;;;;;19.56;nan;97693.81;1722635;75;125791;-70
2023/07/04 05:32:21;;;;;;;4.00;3.00;;;;;;;19.55;nan;97689.53;1724494;75;55638;-73
2023/07/04 05:34:51;;;;;;;3.40;3.10;;;;;;;19.78;nan;97690.59;1724236;75;112600;-72
2023/07/04 05:37:21;;;;;;;2.70;2.30;;;;;;;19.90;nan;97688.31;1725387;75;56964;-76
2023/07/04 05:39:53;;;;;;;2.60;2.30;;;;;;;20.02;nan;97690.84;1710249;75;1266372;-76
2023/07/04 05:42:27;;;;;;;5.60;4.30;;;;;;;19.81;nan;97690.78;1725659;75;58035;-74
2023/07/04 05:44:57;;;;;;;5.10;3.70;;;;;;;20.04;nan;97685.50;1723791;75;109998;-73
2023/07/04 05:47:27;;;;;;;4.20;3.40;;;;;;;20.21;nan;97683.06;1724111;75;60003;-74
2023/07/04 05:49:56;;;;;;;4.00;2.80;;;;;;;20.19;nan;97671.75;1723098;75;58148;-74
2023/07/04 05:52:26;;;;;;;2.90;2.60;;;;;;;20.16;nan;97675.63;1723798;75;59703;-75
2023/07/04 05:54:56;;;;;;;4.20;3.00;;;;;;;20.19;nan;97675.25;1723490;75;84166;-71
2023/07/04 05:57:33;;;;;;;3.60;2.60;;;;;;;20.15;nan;97672.06;1724203;75;55834;-71
2023/07/04 06:00:04;;;;;;;3.70;2.90;;;;;;;20.19;nan;97675.25;1723865;75;116258;-73
2023/07/04 06:02:34;;;;;;;3.00;2.50;;;;;;;20.32;nan;97679.28;1724661;83;51653;-73
2023/07/04 06:05:04;;;;;;;3.40;3.00;;;;;;;20.41;nan;97682.31;1723065;75;124912;-72
2023/07/04 06:07:34;;;;;;;3.20;2.60;;;;;;;20.47;nan;97682.19;1724166;83;58531;-71
2023/07/04 06:10:03;;;;;;;3.10;2.50;;;;;;;20.50;nan;97680.38;1722173;75;59164;-76
2023/07/04 06:12:36;;;;;;;5.90;4.10;;;;;;;20.46;nan;97685.50;1724152;75;61831;-73
2023/07/04 06:15:06;;;;;;;4.50;3.80;;;;;;;20.45;nan;97686.81;1720999;75;277262;-71
2023/07/04 06:17:36;;;;;;;3.30;2.90;;;;;;;20.63;nan;97683.09;1723001;83;52617;-72
2023/07/04 06:20:07;;;;;;;4.40;3.40;;;;;;;20.66;nan;97682.03;1723255;75;121350;-75
2023/07/04 06:22:36;;;;;;;4.80;3.60;;;;;;;20.72;nan;97681.88;1724643;75;53988;-72
2023/07/04 06:25:07;;;;;;;3.60;3.00;;;;;;;20.89;nan;97682.19;1723247;75;125984;-72
2023/07/04 06:27:41;;;;;;;4.10;3.40;;;;;;;21.03;nan;97682.81;1723866;75;52487;-71
2023/07/04 06:30:13;;;;;;;4.00;3.10;;;;;;;21.27;nan;97685.19;1723340;75;122664;-73
2023/07/04 06:32:43;;;;;;;4.00;2.90;;;;;;;21.27;nan;97687.25;1724957;75;55450;-74
2023/07/04 06:35:13;;;;;;;3.80;3.20;;;;;;;21.23;nan;97690.38;1722931;75;123712;-71
2023/07/04 06:37:42;;;;;;;4.50;3.80;;;;;;;21.08;nan;97693.06;1724629;75;55077;-72
2023/07/04 06:40:14;;;;;;;4.00;3.50;;;;;;;21.45;nan;97691.06;1723325;75;51781;-74
2023/07/04 06:42:46;;;;;;;3.30;2.80;;;;;;;21.66;nan;97694.50;1721929;75;50564;-71
2023/07/04 06:45:16;;;;;;;3.30;2.90;;;;;;;21.45;nan;97694.63;1723687;75;118843;-74
2023/07/04 06:47:46;;;;;;;5.20;4.50;;;;;;;21.24;nan;97702.25;1723280;75;57405;-74
2023/07/04 06:50:15;;;;;;;7.50;5.20;;;;;;;21.13;nan;97708.13;1724260;75;56777;-72
2023/07/04 06:52:45;;;;;;;6.40;4.60;;;;;;;21.16;nan;97704.25;1723626;75;87192;-70
2023/07/04 06:55:15;;;;;;;6.70;4.70;;;;;;;21.21;nan;97711.69;1722825;75;133872;-72
2023/07/04 06:57:47;;;;;;;5.00;3.80;;;;;;;21.52;nan;97706.31;1724312;83;53758;-72
2023/07/04 07:00:17;;;;;;;4.30;3.90;;;;;;;21.68;nan;97702.31;1722514;75;120699;-74
2023/07/04 07:02:51;;;;;;;6.50;4.40;;;;;;;21.66;nan;97710.47;1724301;75;64797;-72
2023/07/04 07:05:21;;;;;;;5.80;3.80;;;;;;;21.57;nan;97708.19;1721979;75;156158;-73
2023/07/04 07:07:50;;;;;;;7.50;4.40;;;;;;;21.77;nan;97707.38;1723916;75;55853;-74
2023/07/04 07:10:20;;;;;;;6.50;4.80;;;;;;;21.51;nan;97713.22;1724110;83;79004;-73
2023/07/04 07:12:52;;;;;;;6.20;5.40;;;;;;;21.59;nan;97711.94;1724688;75;54774;-71
2023/07/04 07:15:22;;;;;;;6.10;4.40;;;;;;;21.79;nan;97710.34;1722112;75;203166;-72
2023/07/04 07:17:52;;;;;;;6.60;4.70;;;;;;;21.75;nan;97709.22;1723849;75;86202;-74
2023/07/04 07:20:21;;;;;;;5.20;4.40;;;;;;;21.45;nan;97710.56;1721253;75;277258;-73
2023/07/04 07:22:51;;;;;;;5.10;3.80;;;;;;;22.18;nan;97711.22;1725278;75;54679;-74
2023/07/04 07:25:21;;;;;;;4.20;3.40;;;;;;;22.33;nan;97702.16;1724197;75;81742;-75
2023/07/04 07:27:55;;;;;;;4.90;4.00;;;;;;;22.32;nan;97704.22;1723887;75;52711;-72
2023/07/04 07:30:24;;;;;;;4.50;3.60;;;;;;;22.09;nan;97706.16;1723244;75;119651;-70
2023/07/04 07:32:54;;;;;;;6.30;4.10;;;;;;;22.35;nan;97707.94;1724750;75;51985;-75
2023/07/04 07:35:23;;;;;;;6.60;4.60;;;;;;;22.25;nan;97704.19;1723941;75;52791;-72
2023/07/04 07:37:53;;;;;;;3.90;3.10;;;;;;;22.76;nan;97698.47;1723939;75;58394;-74
2023/07/04 07:40:23;;;;;;;3.90;3.30;;;;;;;22.71;nan;97704.22;1724424;75;52213;-75
2023/07/04 07:42:56;;;;;;;5.10;3.80;;;;;;;22.53;nan;97700.50;1710748;75;1298095;-75
2023/07/04 07:45:25;;;;;;;6.40;3.30;;;;;;;22.72;nan;97706.44;1723370;75;119180;-74
2023/07/04 07:47:55;;;;;;;6.30;3.70;;;;;;;22.69;nan;97707.56;1724990;75;53752;-75
2023/07/04 07:50:24;;;;;;;4.70;3.70;;;;;;;23.00;nan;97707.59;1725988;75;53279;-75
2023/07/04 07:52:54;;;;;;;4.10;3.60;;;;;;;23.44;nan;97704.50;1726208;75;66121;-71
2023/07/04 07:55:24;;;;;;;3.90;3.10;;;;;;;23.28;nan;97695.44;1725217;75;58376;-74
2023/07/04 07:57:56;;;;;;;4.10;3.40;;;;;;;23.67;nan;97695.28;1724940;75;53255;-75
2023/07/04 08:00:26;;;;;;;4.00;3.40;;;;;;;23.60;nan;97691.25;1721907;75;141756;-76
2023/07/04 08:02:55;;;;;;;3.30;2.70;;;;;;;23.78;nan;97694.91;1724995;83;57114;-72
2023/07/04 08:05:25;;;;;;;5.00;3.50;;;;;;;23.61;nan;97692.72;1722392;75;211578;-75
2023/07/04 08:07:55;;;;;;;5.10;3.70;;;;;;;23.76;nan;97695.50;1724510;75;56339;-74
2023/07/04 08:10:25;;;;;;;4.60;3.60;;;;;;;23.56;nan;97702.06;1724287;75;52938;-73
2023/07/04 08:12:57;;;;;;;5.10;3.50;;;;;;;23.52;nan;97698.91;1725440;75;56163;-75
2023/07/04 08:15:27;;;;;;;3.70;3.10;;;;;;;23.83;nan;97696.75;1723096;75;121627;-75
2023/07/04 08:17:57;;;;;;;3.60;2.90;;;;;;;23.88;nan;97695.06;1724533;75;52702;-72
2023/07/04 08:20:26;;;;;;;3.50;3.00;;;;;;;23.77;nan;97702.56;1724390;75;58867;-73
2023/07/04 08:22:56;;;;;;;5.00;3.90;;;;;;;24.10;nan;97688.63;1725398;75;55665;-73
2023/07/04 08:25:26;;;;;;;7.30;4.10;;;;;;;24.17;nan;97687.81;1724052;75;62277;-72
2023/07/04 08:27:58;;;;;;;5.30;4.20;;;;;;;24.18;nan;97688.56;1724573;75;56090;-73
2023/07/04 08:30:28;;;;;;;6.10;3.90;;;;;;;24.11;nan;97690.09;1722578;75;118339;-72
2023/07/04 08:32:57;;;;;;;4.70;3.80;;;;;;;23.94;nan;97692.81;1722605;75;216397;-71
2023/07/04 08:35:27;;;;;;;5.10;3.60;;;;;;;23.71;nan;97692.88;1724306;83;60623;-71
2023/07/04 08:37:57;;;;;;;5.30;4.10;;;;;;;23.80;nan;97695.09;1723938;75;66354;-74
2023/07/04 08:40:26;;;;;;;3.80;3.10;;;;;;;24.15;nan;97696.03;1723962;75;59044;-71
2023/07/04 08:42:59;;;;;;;6.00;4.00;;;;;;;23.93;nan;97692.06;1725082;75;55565;-75
2023/07/04 08:45:32;;;;;;;5.00;3.50;;;;;;;24.29;nan;97699.28;1722911;75;121818;-73
2023/07/04 08:48:02;;;;;;;4.70;3.60;;;;;;;24.25;nan;97701.75;1724708;75;54447;-73
2023/07/04 08:50:40;;;;;;;5.40;3.90;;;;;;;24.08;nan;97707.28;1722967;75;150655;-72
2023/07/04 08:53:16;;;;;;;3.60;2.90;;;;;;;24.51;nan;97697.69;1724183;75;64861;-73
2023/07/04 08:55:53;;;;;;;4.70;3.60;;;;;;;24.45;nan;97697.88;1724853;75;56994;-75
2023/07/04 08:58:34;;;;;;;4.50;3.10;;;;;;;24.43;nan;97708.91;1724034;75;59219;-70
2023/07/04 09:01:13;;;;;;;4.70;3.50;;;;;;;24.33;nan;97713.63;1725523;75;54778;-74
2023/07/04 09:03:51;;;;;;;5.50;3.60;;;;;;;25.41;nan;97707.16;1724878;75;124704;-74
2023/07/04 09:06:33;;;;;;;7.00;3.70;;;;;;;24.67;nan;97704.63;1726188;83;61544;-72
2023/07/04 09:09:15;;;;;;;5.50;3.80;;;;;;;24.60;nan;97707.50;1725631;75;56095;-72
2023/07/04 09:11:45;;;;;;;6.50;4.30;;;;;;;24.63;nan;97704.31;1663917;75;5177550;-75
2023/07/04 09:14:26;;;;;;;5.70;4.20;;;;;;;24.66;nan;97714.38;1725298;75;51624;-73
2023/07/04 09:16:57;;;;;;;4.80;4.20;;;;;;;24.92;nan;97714.34;1724332;75;125486;-72
2023/07/04 09:19:27;;;;;;;6.10;4.40;;;;;;;24.91;nan;97705.19;1724365;75;52560;-71
2023/07/04 09:21:57;;;;;;;7.00;5.20;;;;;;;25.03;nan;97709.00;1722874;75;114976;-70
2023/07/04 09:24:27;;;;;;;5.30;4.10;;;;;;;24.85;nan;97702.63;1724369;75;59801;-74
2023/07/04 09:26:58;;;;;;;4.60;3.90;;;;;;;25.19;nan;97706.09;1724255;75;52635;-74
2023/07/04 09:29:31;;;;;;;5.60;4.30;;;;;;;24.47;nan;97710.59;1723687;75;55241;-71
2023/07/04 09:32:03;;;;;;;5.10;4.00;;;;;;;24.94;nan;97706.84;1722779;75;120601;-71
2023/07/04 09:34:39;;;;;;;5.60;3.90;;;;;;;25.51;nan;97700.31;1724290;75;57059;-73
2023/07/04 09:37:15;;;;;;;5.90;4.50;;;;;;;25.68;nan;97707.22;1723662;75;121834;-75
2023/07/04 09:39:54;;;;;;;5.80;4.20;;;;;;;25.58;nan;97698.75;1724234;75;54693;-76
2023/07/04 09:42:26;;;;;;;5.30;4.20;;;;;;;25.40;nan;97703.63;1724035;75;54237;-75
2023/07/04 09:44:59;;;;;;;7.00;4.90;;;;;;;25.23;nan;97698.00;1724395;83;60442;-76
2023/07/04 09:47:31;;;;;;;7.30;4.90;;;;;;;25.00;nan;97692.63;1724560;75;53194;-74
2023/07/04 09:50:14;;;;;;;7.10;4.90;;;;;;;24.56;nan;97693.19;1724353;75;62753;-71
2023/07/04 09:52:46;;;;;;;4.70;4.10;;;;;;;24.37;nan;97691.59;1724671;75;63128;-73
2023/07/04 09:55:27;;;;;;;4.80;3.60;;;;;;;24.37;nan;97690.88;1724496;75;89152;-74
2023/07/04 09:58:14;;;;;;;5.20;3.70;;;;;;;24.85;nan;97687.91;1724260;75;59710;-75
2023/07/04 10:00:49;;;;;;;5.80;3.70;;;;;;;25.54;nan;97689.25;1724140;75;54488;-74
2023/07/04 10:03:20;;;;;;;5.60;3.80;;;;;;;24.88;nan;97692.34;1725176;75;53716;-72
2023/07/04 10:05:52;;;;;;;4.30;3.50;;;;;;;25.03;nan;97691.47;1724011;75;59668;-73
2023/07/04 10:08:21;;;;;;;4.20;3.20;;;;;;;25.27;nan;97690.66;1723188;75;59359;-75
2023/07/04 10:10:55;;;;;;;6.70;4.10;;;;;;;26.01;nan;97685.34;1722795;75;133525;-71
2023/07/04 10:13:36;;;;;;;5.00;4.30;;;;;;;25.66;nan;97681.81;1724865;75;52410;-74
2023/07/04 10:16:23;;;;;;;5.90;4.40;;;;;;;26.28;nan;97684.59;1724223;75;58571;-73
2023/07/04 10:18:53;;;;;;;7.30;4.30;;;;;;;26.18;nan;97678.94;1723500;75;56005;-72
2023/07/04 10:21:22;;;;;;;5.40;4.00;;;;;;;26.23;nan;97674.38;1724115;75;60359;-72
2023/07/04 10:23:52;;;;;;;5.80;4.20;;;;;;;26.37;nan;97669.84;1724442;75;55452;-72
2023/07/04 10:26:22;;;;;;;5.70;4.00;;;;;;;26.53;nan;97679.56;1725194;75;60774;-77
2023/07/04 10:28:52;;;;;;;5.90;4.40;;;;;;;27.07;nan;97663.84;1723613;75;52362;-74
2023/07/04 10:31:25;;;;;;;7.00;4.00;;;;;;;26.53;nan;97661.91;1723034;75;101112;-75
2023/07/04 10:33:59;;;;;;;5.90;4.30;;;;;;;27.03;nan;97658.66;1724027;75;56529;-74
2023/07/04 10:36:33;;;;;;;4.60;3.60;;;;;;;27.35;nan;97662.41;1725278;75;57570;-74
2023/07/04 10:39:07;;;;;;;6.40;4.30;;;;;;;26.92;nan;97664.88;1722813;75;58931;-71
2023/07/04 10:41:42;;;;;;;5.20;3.70;;;;;;;26.98;nan;97668.84;1724902;75;56262;-73
2023/07/04 10:44:22;;;;;;;6.80;4.60;;;;;;;26.10;nan;97675.50;1724210;75;123691;-72
2023/07/04 10:46:58;;;;;;;5.50;4.50;;;;;;;25.84;nan;97660.13;1724880;75;53848;-73
2023/07/04 10:49:31;;;;;;;5.80;4.30;;;;;;;26.87;nan;97654.66;1724642;75;52263;-72
2023/07/04 10:52:07;;;;;;;6.60;4.50;;;;;;;26.93;nan;97660.72;1723776;75;57306;-74
2023/07/04 10:54:37;;;;;;;6.40;4.60;;;;;;;26.64;nan;97663.47;1723771;83;63448;-75
2023/07/04 10:57:13;;;;;;;5.70;4.20;;;;;;;26.52;nan;97658.38;1710108;75;1241299;-74
2023/07/04 10:59:47;;;;;;;6.70;4.30;;;;;;;27.57;nan;97657.66;1724918;75;53082;-73
2023/07/04 11:02:34;;;;;;;5.60;4.50;;;;;;;27.01;nan;97649.34;1721821;75;122009;-75
2023/07/04 11:05:14;;;;;;;5.20;4.00;;;;;;;26.64;nan;97657.84;1724556;75;55643;-73
2023/07/04 11:07:45;;;;;;;5.20;3.90;;;;;;;27.49;nan;97655.00;1724745;75;53292;-74
2023/07/04 11:10:17;;;;;;;4.90;3.60;;;;;;;26.89;nan;97666.03;1724055;75;57503;-73
2023/07/04 11:12:48;;;;;;;7.50;4.70;;;;;;;26.10;nan;97679.03;1720979;75;204026;-73
2023/07/04 11:17:45;;;;;;;5.10;3.50;;;;;;;26.04;66.36;97675.75;1711207;75;677580;-65
2023/07/04 11:20:24;;;;;;;4.20;3.20;;;;;;;25.36;70.04;97666.88;1704493;75;680473;-63
2023/07/04 11:23:02;;;;;;;3.50;2.40;;;;;;;24.78;74.70;97677.50;1711388;75;677971;-68
2023/07/04 11:25:55;;;;;;;4.80;3.30;;;;;;;24.20;84.08;97675.50;1702684;75;680389;-67
2023/07/04 11:28:45;;;;;;;4.50;2.70;;;;;;;23.61;90.23;97678.75;1702937;75;678302;-62
2023/07/04 11:31:27;;;;;;;2.10;1.70;;;;;;;23.69;93.87;97687.09;1699436;75;677423;-68
2023/07/04 11:34:11;;;;;;;2.60;1.70;;;;;;;22.95;100.00;97672.94;1709894;75;668175;-64
2023/07/04 11:36:58;;;;;;;1.45;0.90;;;;;;;22.30;100.00;97690.06;1701337;75;798202;-66
2023/07/04 11:39:37;;;;;;;3.70;1.80;;;;;;;20.59;100.00;97663.97;1701587;75;676233;-67
2023/07/04 11:42:22;;;;;;;3.15;1.90;;;;;;;20.71;100.00;97672.78;1711786;75;669816;-63
2023/07/04 11:45:02;;;;;;;4.25;2.05;;;;;;;20.28;100.00;97679.63;1702268;75;800738;-64
2023/07/04 11:47:39;;;;;;;3.90;2.20;;;;;;;19.43;100.00;97680.69;1703487;75;673530;-66
2023/07/04 11:50:20;;;;;;;2.90;1.40;;;;;;;19.80;100.00;97684.50;1708626;75;865638;-65
2023/07/04 11:52:58;;;;;;;2.70;1.40;;;;;;;19.60;100.00;97702.53;1703216;75;672478;-63
2023/07/04 11:55:33;;;;;;;2.65;1.40;;;;;;;19.77;100.00;97682.78;1702972;75;678121;-65
2023/07/04 11:58:23;;;;;;;2.60;1.35;;;;;;;20.00;100.00;97681.00;1710923;75;675585;-62
2023/07/04 12:01:08;;;;;;;1.95;1.30;;;;;;;20.34;100.00;97682.25;1700703;75;796374;-64
2023/07/04 12:04:02;;;;;;;1.95;1.60;;;;;;;20.51;100.00;97674.25;1703017;75;674506;-65
2023/07/04 12:07:05;;;;;;;1.30;1.10;;;;;;;20.61;100.00;97678.09;1702211;75;670388;-65
2023/07/04 12:09:44;;;;;;;1.80;1.10;;;;;;;20.70;100.00;97679.63;1702289;75;678648;-64
2023/07/04 12:12:24;;;;;;;1.40;1.20;;;;;;;20.66;100.00;97682.03;1711680;75;684496;-65
2023/07/04 12:15:08;;;;;;;1.60;1.00;;;;;;;20.67;100.00;97677.19;1700352;75;800896;-68